Time;durP1;ratioP1;P1;durP2;ratioP2;P2;SDS_P1;SDS_P2;PMS_P1;PMS_P2;Temp;Humidity;BMP_temperature;BMP_pressure;BME280_temperature;BME280_humidity;BME280_pressure;Samples;Min_cycle;Max_cycle;Signal;HPM_P1;HPM_P2
2022/08/23 00:01:06;;;;;;;1.08;1.08;;;21.20;99.90;;;;;;5070467;28;20195;-65
2022/08/23 00:03:34;;;;;;;1.20;1.20;;;21.20;99.90;;;;;;5070286;28;21684;-66
2022/08/23 00:06:02;;;;;;;1.00;1.00;;;21.10;99.90;;;;;;5067354;28;20223;-65
2022/08/23 00:08:29;;;;;;;1.00;1.00;;;21.00;99.90;;;;;;5070016;28;20317;-66
2022/08/23 00:10:56;;;;;;;1.02;1.02;;;20.90;99.90;;;;;;5070225;28;20567;-66
2022/08/23 00:13:23;;;;;;;1.02;1.02;;;20.80;99.90;;;;;;5070667;28;20207;-66
2022/08/23 00:15:50;;;;;;;1.00;1.00;;;20.80;99.90;;;;;;5070862;28;20223;-68
2022/08/23 00:18:19;;;;;;;1.00;1.00;;;20.80;99.90;;;;;;5071152;28;20199;-67
2022/08/23 00:20:48;;;;;;;1.00;1.00;;;20.80;99.90;;;;;;5071361;28;20646;-66
2022/08/23 00:23:15;;;;;;;0.90;0.90;;;20.70;99.90;;;;;;5071105;28;20299;-68
2022/08/23 00:25:41;;;;;;;1.13;1.13;;;20.70;99.90;;;;;;5070918;28;20223;-67
2022/08/23 00:28:08;;;;;;;0.95;0.95;;;20.60;99.90;;;;;;5071300;28;20219;-67
2022/08/23 00:30:36;;;;;;;0.93;0.93;;;20.60;99.90;;;;;;5070764;28;20199;-66
2022/08/23 00:33:03;;;;;;;1.00;1.00;;;20.60;99.90;;;;;;5065129;28;20196;-67
2022/08/23 00:35:30;;;;;;;0.98;0.98;;;20.60;99.90;;;;;;5071066;28;20219;-68
2022/08/23 00:37:59;;;;;;;1.20;1.20;;;20.50;99.90;;;;;;5072774;28;20571;-67
2022/08/23 00:40:26;;;;;;;0.90;0.90;;;20.50;99.90;;;;;;5075120;28;20210;-67
2022/08/23 00:48:32;;;;;;;1.05;1.05;;;20.30;99.90;;;;;;5072965;28;20252;-67
2022/08/23 00:51:05;;;;;;;1.00;1.00;;;20.20;99.90;;;;;;5073554;28;20199;-67
2022/08/23 00:53:38;;;;;;;1.02;1.02;;;20.20;99.90;;;;;;5073061;28;20257;-70
2022/08/23 00:56:09;;;;;;;0.90;0.90;;;20.20;99.90;;;;;;5073252;28;20219;-68
2022/08/23 00:58:36;;;;;;;1.05;1.05;;;20.30;99.90;;;;;;5071114;28;20198;-69
2022/08/23 01:01:05;;;;;;;1.10;1.10;;;20.20;99.90;;;;;;5071523;28;20199;-67
2022/08/23 01:03:34;;;;;;;0.85;0.85;;;20.20;99.90;;;;;;5072902;28;20233;-66
2022/08/23 01:06:06;;;;;;;1.07;1.07;;;20.20;99.90;;;;;;5073693;28;20732;-67
2022/08/23 01:08:35;;;;;;;1.08;1.08;;;20.20;99.90;;;;;;5074740;28;20255;-68
2022/08/23 01:11:06;;;;;;;1.10;1.10;;;20.10;99.90;;;;;;5078044;28;20683;-66
2022/08/23 01:13:40;;;;;;;1.30;1.08;;;20.10;99.90;;;;;;5077489;28;20293;-67
2022/08/23 01:16:10;;;;;;;0.80;0.80;;;20.10;99.90;;;;;;5075674;28;20219;-68
2022/08/23 01:18:39;;;;;;;1.00;1.00;;;20.10;99.90;;;;;;5073359;28;20662;-67
2022/08/23 01:21:12;;;;;;;1.00;1.00;;;20.10;99.90;;;;;;5071682;28;20435;-66
2022/08/23 01:23:45;;;;;;;1.00;0.90;;;20.10;99.90;;;;;;5073309;28;20207;-66
2022/08/23 01:26:14;;;;;;;1.38;1.00;;;20.10;99.90;;;;;;5068270;28;20317;-67
2022/08/23 01:28:42;;;;;;;1.02;1.02;;;20.00;99.90;;;;;;5072232;28;20310;-66
2022/08/23 01:31:11;;;;;;;0.98;0.98;;;20.00;99.90;;;;;;5072243;28;20203;-66
2022/08/23 01:33:40;;;;;;;1.55;1.02;;;20.00;99.90;;;;;;5072492;28;20287;-67
2022/08/23 01:36:12;;;;;;;0.98;0.98;;;20.00;99.90;;;;;;5071123;28;20222;-67
2022/08/23 01:38:40;;;;;;;0.90;0.90;;;19.90;99.90;;;;;;5072533;28;20195;-67
2022/08/23 01:41:08;;;;;;;1.00;1.00;;;19.90;99.90;;;;;;5072410;28;20565;-66
2022/08/23 01:43:35;;;;;;;1.20;1.10;;;19.80;99.90;;;;;;5067538;28;20206;-68
2022/08/23 01:46:08;;;;;;;1.10;1.10;;;19.70;99.90;;;;;;5069859;28;20223;-67
2022/08/23 01:48:36;;;;;;;1.00;1.00;;;19.80;99.90;;;;;;5068830;28;20246;-66
2022/08/23 01:51:03;;;;;;;1.27;1.17;;;19.70;99.90;;;;;;5070803;28;20289;-67
2022/08/23 01:53:30;;;;;;;0.82;0.82;;;19.70;99.90;;;;;;5071898;28;20202;-66
2022/08/23 01:56:00;;;;;;;1.00;1.00;;;19.60;99.90;;;;;;5071595;28;20758;-66
2022/08/23 01:58:27;;;;;;;1.20;1.20;;;19.60;99.90;;;;;;5072391;28;20456;-67
2022/08/23 02:00:54;;;;;;;0.98;0.98;;;19.60;99.90;;;;;;5072219;28;20195;-67
2022/08/23 02:03:21;;;;;;;0.90;0.90;;;19.60;99.90;;;;;;5070492;28;20286;-68
2022/08/23 02:05:48;;;;;;;1.17;1.08;;;19.50;99.90;;;;;;5070558;28;20231;-66
2022/08/23 02:11:06;;;;;;;0.90;0.90;;;19.40;99.90;;;;;;5070855;28;20272;-66
2022/08/23 02:13:33;;;;;;;1.02;1.02;;;19.40;99.90;;;;;;5073248;28;20677;-69
2022/08/23 02:16:00;;;;;;;2.00;1.10;;;19.30;99.90;;;;;;5072875;28;20247;-67
2022/08/23 02:18:27;;;;;;;0.85;0.85;;;19.30;99.90;;;;;;5073231;28;20235;-67
2022/08/23 02:20:54;;;;;;;0.90;0.90;;;19.30;99.90;;;;;;5073204;28;20290;-67
2022/08/23 02:23:22;;;;;;;1.10;1.10;;;19.30;99.90;;;;;;5073258;28;20294;-65
2022/08/23 02:25:50;;;;;;;1.00;1.00;;;19.30;99.90;;;;;;5072798;28;20270;-66
2022/08/23 02:28:19;;;;;;;0.93;0.93;;;19.30;99.90;;;;;;5072838;28;20250;-67
2022/08/23 02:30:46;;;;;;;1.00;1.00;;;19.30;99.90;;;;;;5073364;28;20199;-67
2022/08/23 02:33:13;;;;;;;1.05;1.05;;;19.30;99.90;;;;;;5072769;28;20211;-67
2022/08/23 02:35:41;;;;;;;1.30;1.20;;;19.20;99.90;;;;;;5067268;28;20223;-67
2022/08/23 02:38:10;;;;;;;1.10;1.10;;;19.20;99.90;;;;;;5070691;28;20211;-68
2022/08/23 02:40:39;;;;;;;0.95;0.95;;;19.20;99.90;;;;;;5072888;28;20203;-66
2022/08/23 02:43:06;;;;;;;1.10;1.10;;;19.20;99.90;;;;;;5072843;28;20203;-66
2022/08/23 02:45:36;;;;;;;1.27;1.17;;;19.10;99.90;;;;;;5074056;28;20720;-66
2022/08/23 02:48:03;;;;;;;1.10;1.10;;;19.00;99.90;;;;;;5073920;28;20650;-66
2022/08/23 02:50:30;;;;;;;1.00;1.00;;;19.00;99.90;;;;;;5074020;28;20219;-67
2022/08/23 02:52:58;;;;;;;1.27;1.10;;;19.00;99.90;;;;;;5073855;28;20286;-67
2022/08/23 02:55:25;;;;;;;1.10;1.10;;;19.10;99.90;;;;;;5073233;28;20708;-66
2022/08/23 02:57:52;;;;;;;1.00;1.00;;;19.10;99.90;;;;;;5073808;28;20649;-68
2022/08/23 03:00:20;;;;;;;1.27;1.27;;;19.10;99.90;;;;;;5065122;28;20195;-67
2022/08/23 03:02:48;;;;;;;1.15;1.15;;;19.10;99.90;;;;;;5073676;28;20583;-67
2022/08/23 03:05:16;;;;;;;1.10;1.10;;;19.00;99.90;;;;;;5073378;28;20262;-67
2022/08/23 03:07:43;;;;;;;1.20;1.20;;;18.90;99.90;;;;;;5073764;28;20204;-67
2022/08/23 03:10:10;;;;;;;1.30;1.30;;;18.90;99.90;;;;;;5073228;28;20659;-66
2022/08/23 03:12:38;;;;;;;1.13;1.13;;;18.80;99.90;;;;;;5073304;28;20238;-65
2022/08/23 03:15:06;;;;;;;1.17;1.17;;;18.60;99.90;;;;;;5073418;28;20747;-67
2022/08/23 03:17:34;;;;;;;1.10;1.10;;;18.60;99.90;;;;;;5074258;28;20227;-67
2022/08/23 03:20:02;;;;;;;1.00;1.00;;;18.60;99.90;;;;;;5073242;28;20199;-66
2022/08/23 03:22:29;;;;;;;0.90;0.90;;;18.50;99.90;;;;;;5061113;28;20291;-66
2022/08/23 03:24:56;;;;;;;1.10;1.10;;;18.50;99.90;;;;;;5071436;28;20306;-67
2022/08/23 03:27:23;;;;;;;1.00;1.00;;;18.50;99.90;;;;;;5067906;28;20207;-67
2022/08/23 03:29:50;;;;;;;1.10;1.10;;;18.40;99.90;;;;;;5073891;28;20231;-67
2022/08/23 03:32:17;;;;;;;1.10;1.10;;;18.30;99.90;;;;;;5072951;28;20210;-67
2022/08/23 03:34:43;;;;;;;1.38;1.27;;;18.20;99.90;;;;;;5073790;28;20251;-68
2022/08/23 03:37:12;;;;;;;1.00;1.00;;;18.10;99.90;;;;;;5069316;28;20284;-68
2022/08/23 03:39:39;;;;;;;1.30;1.20;;;18.00;99.90;;;;;;5072730;28;20199;-66
2022/08/23 03:42:06;;;;;;;1.38;1.27;;;17.90;99.90;;;;;;5073109;28;20227;-67
2022/08/23 03:44:33;;;;;;;1.10;1.10;;;17.90;99.90;;;;;;5073288;28;20649;-69
2022/08/23 03:47:00;;;;;;;0.98;0.98;;;17.80;99.90;;;;;;5073610;28;20240;-65
2022/08/23 03:49:28;;;;;;;1.20;1.20;;;17.80;99.90;;;;;;5073279;28;20223;-66
2022/08/23 03:51:55;;;;;;;1.43;1.20;;;17.80;99.90;;;;;;5072539;28;20199;-67
2022/08/23 03:54:23;;;;;;;1.27;1.27;;;17.80;99.90;;;;;;5072765;28;20318;-66
2022/08/23 03:56:53;;;;;;;1.23;1.23;;;17.80;99.90;;;;;;5072760;28;20203;-66
2022/08/23 03:59:20;;;;;;;1.02;1.02;;;17.80;99.90;;;;;;5068557;28;20205;-66
2022/08/23 04:01:49;;;;;;;1.30;1.20;;;17.80;99.90;;;;;;5073553;28;20238;-68
2022/08/23 04:04:16;;;;;;;2.25;2.00;;;17.80;99.90;;;;;;5073816;28;20234;-67
2022/08/23 04:06:44;;;;;;;1.30;1.30;;;17.80;99.90;;;;;;5072586;28;20203;-67
2022/08/23 04:09:12;;;;;;;1.20;1.20;;;17.70;99.90;;;;;;5080478;28;20290;-66
2022/08/23 04:11:40;;;;;;;1.10;1.10;;;17.70;99.90;;;;;;5088958;28;20563;-70
2022/08/23 04:14:07;;;;;;;1.20;1.20;;;17.70;99.90;;;;;;5091750;28;20206;-66
2022/08/23 04:16:36;;;;;;;0.95;0.95;;;17.70;99.90;;;;;;5086664;28;20289;-66
2022/08/23 04:19:03;;;;;;;1.10;1.10;;;17.60;99.90;;;;;;5080063;28;20570;-67
2022/08/23 04:21:31;;;;;;;1.23;1.13;;;17.60;99.90;;;;;;5074413;28;20231;-67
2022/08/23 04:23:58;;;;;;;1.10;1.10;;;17.60;99.90;;;;;;5079435;28;20211;-66
2022/08/23 04:26:25;;;;;;;1.10;1.10;;;17.60;99.90;;;;;;5079611;28;20217;-65
2022/08/23 04:28:53;;;;;;;1.15;1.15;;;17.60;99.90;;;;;;5080046;28;20250;-67
2022/08/23 04:31:20;;;;;;;1.20;1.20;;;17.70;99.90;;;;;;5074229;28;20293;-66
2022/08/23 04:33:48;;;;;;;1.00;1.00;;;17.60;99.90;;;;;;5079722;28;20211;-66
2022/08/23 04:36:15;;;;;;;1.10;1.10;;;17.60;99.90;;;;;;5078059;28;20227;-67
2022/08/23 04:38:42;;;;;;;1.00;1.00;;;17.60;99.90;;;;;;5078448;28;20281;-67
2022/08/23 04:43:55;;;;;;;1.10;1.10;;;17.70;99.90;;;;;;5074738;28;20680;-67
2022/08/23 04:46:22;;;;;;;1.17;1.17;;;17.70;99.90;;;;;;5078419;28;20268;-66
2022/08/23 04:48:49;;;;;;;1.00;1.00;;;17.70;99.90;;;;;;5080093;28;20210;-66
2022/08/23 04:51:16;;;;;;;1.03;1.03;;;17.60;99.90;;;;;;5079368;28;20635;-66
2022/08/23 04:53:43;;;;;;;1.00;1.00;;;17.60;99.90;;;;;;5079064;28;20227;-66
2022/08/23 04:56:10;;;;;;;0.98;0.98;;;17.50;99.90;;;;;;5079013;28;20272;-66
2022/08/23 04:58:38;;;;;;;1.10;1.10;;;17.60;99.90;;;;;;5079543;28;20213;-66
2022/08/23 05:01:08;;;;;;;1.20;1.20;;;17.60;99.90;;;;;;5079368;28;20199;-67
2022/08/23 05:03:36;;;;;;;1.60;1.50;;;17.60;99.90;;;;;;5078675;28;20211;-66
2022/08/23 05:06:04;;;;;;;1.35;1.33;;;17.50;99.90;;;;;;5078596;28;20234;-67
2022/08/23 05:08:31;;;;;;;1.05;1.05;;;17.50;99.90;;;;;;5079001;28;20203;-67
2022/08/23 05:11:01;;;;;;;1.08;1.08;;;17.40;99.90;;;;;;5078123;28;20306;-67
2022/08/23 05:13:28;;;;;;;1.67;1.10;;;17.50;99.90;;;;;;5078566;28;20203;-67
2022/08/23 05:15:54;;;;;;;2.15;1.45;;;17.50;99.90;;;;;;5078644;28;20258;-65
2022/08/23 05:18:23;;;;;;;1.20;1.20;;;17.40;99.90;;;;;;5071330;28;20217;-67
2022/08/23 05:20:50;;;;;;;1.02;1.02;;;17.40;99.90;;;;;;5079019;28;20271;-66
2022/08/23 05:23:17;;;;;;;2.03;1.30;;;17.40;99.90;;;;;;5076836;28;20227;-65
2022/08/23 05:25:49;;;;;;;1.43;1.27;;;17.50;99.90;;;;;;5075787;28;20314;-66
2022/08/23 05:28:17;;;;;;;1.00;1.00;;;17.50;99.90;;;;;;5077798;28;20206;-66
2022/08/23 05:30:45;;;;;;;1.20;1.10;;;17.50;99.90;;;;;;5075674;28;20608;-66
2022/08/23 05:33:12;;;;;;;1.77;1.20;;;17.50;99.90;;;;;;5075826;28;20261;-66
2022/08/23 05:35:41;;;;;;;1.50;1.40;;;17.60;99.90;;;;;;5076110;28;20255;-66
2022/08/23 05:38:07;;;;;;;1.10;1.10;;;17.60;99.90;;;;;;5075625;28;20298;-70
2022/08/23 05:40:34;;;;;;;1.20;1.20;;;17.70;99.90;;;;;;5075152;28;20204;-67
2022/08/23 05:43:01;;;;;;;1.50;1.40;;;17.80;99.90;;;;;;5083740;28;20199;-67
2022/08/23 05:45:28;;;;;;;1.20;1.20;;;17.80;99.90;;;;;;5086192;28;20230;-67
2022/08/23 05:47:55;;;;;;;1.05;1.05;;;17.80;99.90;;;;;;5086291;28;20270;-66
2022/08/23 05:50:22;;;;;;;1.60;1.00;;;17.90;99.90;;;;;;5075326;28;20315;-66
2022/08/23 05:52:50;;;;;;;1.10;1.10;;;18.10;99.90;;;;;;5073827;28;20265;-68
2022/08/23 05:55:17;;;;;;;1.10;1.10;;;18.10;99.90;;;;;;5075508;28;20313;-67
2022/08/23 05:57:44;;;;;;;1.10;1.10;;;18.30;99.90;;;;;;5076792;28;20247;-67
2022/08/23 06:00:13;;;;;;;1.10;1.10;;;18.40;99.90;;;;;;5075260;28;20572;-68
2022/08/23 06:02:40;;;;;;;1.00;1.00;;;18.50;99.90;;;;;;5075375;28;20217;-67
2022/08/23 06:05:08;;;;;;;1.10;1.10;;;18.60;99.90;;;;;;5074763;28;20321;-66
2022/08/23 06:07:36;;;;;;;0.93;0.93;;;18.80;99.90;;;;;;5075407;28;20667;-67
2022/08/23 06:10:05;;;;;;;1.05;1.05;;;18.90;99.90;;;;;;5075479;28;20310;-67
2022/08/23 06:12:33;;;;;;;1.17;1.17;;;19.10;99.90;;;;;;5074245;28;20195;-68
2022/08/23 06:15:00;;;;;;;1.85;1.25;;;19.20;99.90;;;;;;5074854;28;20280;-67
2022/08/23 06:17:27;;;;;;;0.93;0.93;;;19.30;99.90;;;;;;5089927;22;20704;-60
2022/08/23 06:19:54;;;;;;;1.02;1.00;;;19.40;99.90;;;;;;5063335;28;20291;-61
2022/08/23 06:22:26;;;;;;;1.20;1.08;;;19.50;99.90;;;;;;5072447;28;20687;-62
2022/08/23 06:24:53;;;;;;;1.10;1.10;;;19.60;99.90;;;;;;5070685;28;20257;-60
2022/08/23 06:27:22;;;;;;;1.13;1.13;;;19.70;99.90;;;;;;5088080;28;20218;-61
2022/08/23 06:29:49;;;;;;;1.10;1.10;;;19.80;99.90;;;;;;5089758;28;20562;-61
2022/08/23 06:32:16;;;;;;;1.02;1.02;;;19.90;99.90;;;;;;5087849;28;20297;-60
2022/08/23 06:34:42;;;;;;;1.10;1.10;;;20.10;99.90;;;;;;5091304;28;20201;-61
2022/08/23 06:37:11;;;;;;;0.90;0.90;;;20.10;99.90;;;;;;5076553;28;20215;-61
2022/08/23 06:39:39;;;;;;;0.90;0.90;;;20.30;99.90;;;;;;5083457;28;20229;-60
2022/08/23 06:42:10;;;;;;;1.10;1.00;;;20.40;99.90;;;;;;5085220;28;20198;-60
2022/08/23 06:44:38;;;;;;;1.00;1.00;;;20.60;99.90;;;;;;5085214;28;20202;-62
2022/08/23 06:47:07;;;;;;;0.85;0.85;;;20.70;99.90;;;;;;5088099;28;20261;-61
2022/08/23 06:49:34;;;;;;;1.67;1.38;;;20.80;99.90;;;;;;5096641;28;20210;-62
2022/08/23 06:52:03;;;;;;;1.08;1.08;;;20.80;99.90;;;;;;5097452;27;20573;-61
2022/08/23 06:54:32;;;;;;;1.15;1.15;;;21.00;99.90;;;;;;5096315;28;20295;-61
2022/08/23 06:56:59;;;;;;;1.00;1.00;;;21.10;99.90;;;;;;5091651;28;20289;-62
2022/08/23 06:59:27;;;;;;;1.00;1.00;;;21.30;99.90;;;;;;5093999;28;20696;-61
2022/08/23 07:01:57;;;;;;;0.73;0.73;;;21.40;99.90;;;;;;5094499;28;20198;-62
2022/08/23 07:04:27;;;;;;;1.00;1.00;;;21.60;99.90;;;;;;5093186;28;20274;-61
2022/08/23 07:06:55;;;;;;;1.10;1.10;;;21.70;99.90;;;;;;5099789;28;20568;-60
2022/08/23 07:09:24;;;;;;;1.00;1.00;;;21.90;99.90;;;;;;5092655;28;20622;-60
2022/08/23 07:11:51;;;;;;;1.10;1.10;;;21.90;99.90;;;;;;5085328;28;20219;-61
2022/08/23 07:14:20;;;;;;;1.00;1.00;;;22.20;99.90;;;;;;5096497;28;20524;-62
2022/08/23 07:16:49;;;;;;;1.00;1.00;;;22.30;99.90;;;;;;5082689;28;20275;-60
2022/08/23 07:19:20;;;;;;;0.98;0.98;;;22.50;99.90;;;;;;5090578;28;20199;-62
2022/08/23 07:21:47;;;;;;;1.02;1.02;;;22.70;99.90;;;;;;5089553;28;20198;-61
2022/08/23 07:24:16;;;;;;;1.30;1.20;;;22.80;99.90;;;;;;5087557;28;20275;-60
2022/08/23 07:26:44;;;;;;;1.15;1.08;;;23.00;99.90;;;;;;5092366;28;20763;-62
2022/08/23 07:29:13;;;;;;;1.20;1.10;;;23.10;99.90;;;;;;5094319;28;20364;-60
2022/08/23 07:31:41;;;;;;;0.90;0.90;;;23.00;99.90;;;;;;5080191;28;20350;-60
2022/08/23 07:34:09;;;;;;;1.15;1.10;;;23.00;99.90;;;;;;5086900;28;20198;-61
2022/08/23 07:36:39;;;;;;;1.02;1.02;;;23.10;99.90;;;;;;5084601;28;20305;-60
2022/08/23 07:39:08;;;;;;;1.20;1.10;;;23.30;99.90;;;;;;5089565;28;20209;-61
2022/08/23 07:41:37;;;;;;;1.20;1.20;;;23.40;99.90;;;;;;5084228;28;20191;-62
2022/08/23 07:44:05;;;;;;;1.40;1.15;;;23.60;99.90;;;;;;5089324;28;21595;-61
2022/08/23 07:46:33;;;;;;;1.20;1.20;;;23.60;99.90;;;;;;5086560;28;20583;-62
2022/08/23 07:49:01;;;;;;;1.10;1.10;;;23.70;99.90;;;;;;5090424;28;20202;-62
2022/08/23 07:51:30;;;;;;;1.50;1.40;;;23.80;99.90;;;;;;5092242;28;20293;-61
2022/08/23 07:54:00;;;;;;;1.30;1.20;;;23.80;99.90;;;;;;5083301;28;20237;-60
2022/08/23 07:56:27;;;;;;;1.33;1.23;;;23.80;99.90;;;;;;5089452;28;20321;-60
2022/08/23 07:58:54;;;;;;;1.45;1.42;;;23.70;99.90;;;;;;5091265;28;20616;-60
2022/08/23 08:01:23;;;;;;;1.30;1.30;;;23.80;99.90;;;;;;5093329;28;20214;-62
2022/08/23 08:03:52;;;;;;;1.23;1.20;;;23.90;99.90;;;;;;5091338;28;20281;-60
2022/08/23 08:06:22;;;;;;;1.05;1.05;;;24.00;99.90;;;;;;5088519;28;20234;-61
2022/08/23 08:08:49;;;;;;;0.90;0.90;;;24.00;99.90;;;;;;5090521;28;20202;-62
2022/08/23 08:11:20;;;;;;;1.00;1.00;;;24.00;99.90;;;;;;5094915;28;20226;-61
2022/08/23 08:13:49;;;;;;;1.42;1.33;;;24.20;99.90;;;;;;5089344;28;20203;-59
2022/08/23 08:16:22;;;;;;;1.17;1.17;;;24.40;99.90;;;;;;5103443;28;20258;-60
2022/08/23 08:18:49;;;;;;;1.30;1.20;;;24.60;99.90;;;;;;5095217;28;20202;-60
2022/08/23 08:21:18;;;;;;;3.10;1.20;;;24.60;99.90;;;;;;5088556;28;20656;-60
2022/08/23 08:23:44;;;;;;;1.38;1.25;;;24.60;99.90;;;;;;5089928;28;20577;-62
2022/08/23 08:26:11;;;;;;;1.20;1.10;;;24.60;99.90;;;;;;5089434;28;20221;-62
2022/08/23 08:28:40;;;;;;;1.10;1.10;;;24.70;99.90;;;;;;5090675;28;20289;-62
2022/08/23 08:31:08;;;;;;;1.00;1.00;;;24.80;99.90;;;;;;5084997;28;20215;-62
2022/08/23 08:33:35;;;;;;;1.13;1.13;;;25.00;99.90;;;;;;5092759;28;20202;-61
2022/08/23 08:36:03;;;;;;;1.20;1.10;;;25.20;99.90;;;;;;5088359;28;20241;-61
2022/08/23 08:38:30;;;;;;;1.25;1.20;;;25.30;99.90;;;;;;5091061;28;20198;-62
2022/08/23 08:41:05;;;;;;;0.93;0.93;;;25.30;99.90;;;;;;5090056;28;20555;-62
2022/08/23 08:43:43;;;;;;;1.20;1.10;;;25.50;99.90;;;;;;5088106;28;20281;-62
2022/08/23 08:46:16;;;;;;;1.00;1.00;;;25.70;99.90;;;;;;5084412;28;20223;-63
2022/08/23 08:48:48;;;;;;;1.20;1.20;;;25.70;99.90;;;;;;5089182;28;20660;-60
2022/08/23 08:51:31;;;;;;;1.20;1.10;;;25.80;99.90;;;;;;5087732;28;20221;-60
2022/08/23 08:54:01;;;;;;;1.20;1.10;;;26.00;99.90;;;;;;5090206;28;20199;-62
2022/08/23 08:56:32;;;;;;;1.25;1.25;;;26.10;99.90;;;;;;5083851;28;20219;-60
2022/08/23 08:59:03;;;;;;;1.15;1.15;;;26.20;99.90;;;;;;5083617;28;20206;-60
2022/08/23 09:01:33;;;;;;;2.90;1.20;;;26.30;99.90;;;;;;5090835;28;20191;-60
2022/08/23 09:04:01;;;;;;;1.10;1.10;;;26.40;99.90;;;;;;5092810;28;20268;-61
2022/08/23 09:06:34;;;;;;;0.90;0.90;;;26.40;99.90;;;;;;5091135;28;20306;-60
2022/08/23 09:09:15;;;;;;;1.02;1.00;;;26.50;99.90;;;;;;5092947;28;20202;-62
2022/08/23 09:11:55;;;;;;;0.98;0.98;;;26.60;99.90;;;;;;5092172;28;20222;-61
2022/08/23 09:14:55;;;;;;;1.00;1.00;;;26.70;99.90;;;;;;5087562;28;20234;-62
2022/08/23 09:17:37;;;;;;;1.25;1.15;;;26.80;99.90;;;;;;5092632;28;20230;-62
2022/08/23 09:20:06;;;;;;;0.90;0.90;;;26.80;99.90;;;;;;5092000;28;20210;-62
2022/08/23 09:22:37;;;;;;;1.50;1.27;;;26.90;99.90;;;;;;5081935;28;20202;-61
2022/08/23 09:25:07;;;;;;;1.08;1.08;;;27.00;99.90;;;;;;5093745;28;20209;-62
2022/08/23 09:27:36;;;;;;;1.10;1.00;;;26.90;99.90;;;;;;5092335;28;20907;-61
2022/08/23 09:30:05;;;;;;;1.52;1.25;;;26.90;99.90;;;;;;5091540;28;20581;-61
2022/08/23 09:32:34;;;;;;;1.10;1.10;;;27.00;99.90;;;;;;5091833;28;20665;-61
2022/08/23 09:35:16;;;;;;;1.20;1.10;;;27.20;99.90;;;;;;5089769;28;20209;-61
2022/08/23 09:37:50;;;;;;;1.23;1.23;;;27.40;99.90;;;;;;5088089;28;20228;-62
2022/08/23 09:40:23;;;;;;;1.13;1.10;;;27.30;99.90;;;;;;5089333;28;20568;-61
2022/08/23 09:43:08;;;;;;;1.05;1.05;;;27.30;99.90;;;;;;5085841;28;20208;-61
2022/08/23 09:45:39;;;;;;;1.10;1.10;;;27.30;99.90;;;;;;5093550;28;20615;-60
2022/08/23 09:48:12;;;;;;;2.35;1.42;;;27.40;99.90;;;;;;5079878;28;20571;-61
2022/08/23 09:50:46;;;;;;;0.93;0.93;;;27.70;99.90;;;;;;5091991;28;20209;-62
2022/08/23 09:53:15;;;;;;;1.00;1.00;;;27.80;99.90;;;;;;5081961;28;20217;-63
2022/08/23 09:55:46;;;;;;;1.75;1.20;;;28.10;99.90;;;;;;5084254;28;20217;-60
2022/08/23 09:58:18;;;;;;;1.30;1.27;;;28.20;99.90;;;;;;5087748;28;20198;-66
2022/08/23 10:01:07;;;;;;;1.30;1.08;;;28.20;99.90;;;;;;5084545;28;20207;-60
2022/08/23 10:03:34;;;;;;;1.10;1.10;;;28.10;99.90;;;;;;5091034;28;20195;-62
2022/08/23 10:06:02;;;;;;;0.90;0.90;;;28.20;99.90;;;;;;5087229;28;20594;-62
2022/08/23 10:08:32;;;;;;;0.98;0.98;;;28.40;99.90;;;;;;5088096;28;20326;-62
2022/08/23 10:11:05;;;;;;;0.90;0.90;;;28.50;99.90;;;;;;5093043;28;20214;-62
2022/08/23 10:13:32;;;;;;;1.00;1.00;;;28.60;99.90;;;;;;5093288;28;20217;-62
2022/08/23 10:16:09;;;;;;;1.08;1.08;;;28.80;99.90;;;;;;5084687;28;20314;-61
2022/08/23 10:18:49;;;;;;;1.38;1.27;;;28.90;99.90;;;;;;5092311;28;20198;-61
2022/08/23 10:21:22;;;;;;;1.15;1.15;;;28.60;99.90;;;;;;5091486;28;20226;-61
2022/08/23 10:24:11;;;;;;;1.23;1.17;;;28.40;99.90;;;;;;5085953;28;20627;-60
2022/08/23 10:26:48;;;;;;;1.02;1.02;;;28.50;99.90;;;;;;5090997;28;20222;-62
2022/08/23 10:29:39;;;;;;;0.80;0.80;;;28.50;99.90;;;;;;5082676;28;20285;-63
2022/08/23 10:32:21;;;;;;;1.70;1.30;;;28.70;99.90;;;;;;5090488;28;20218;-62
2022/08/23 10:34:59;;;;;;;1.10;1.10;;;28.90;99.90;;;;;;5091970;28;20195;-62
2022/08/23 10:37:48;;;;;;;1.58;1.00;;;29.00;99.90;;;;;;5096968;28;20618;-62
2022/08/23 10:40:19;;;;;;;1.75;1.10;;;29.00;99.90;;;;;;5095078;28;20739;-63
2022/08/23 10:43:00;;;;;;;1.10;1.10;;;29.10;99.90;;;;;;5089670;28;20257;-62
2022/08/23 10:45:31;;;;;;;0.90;0.90;;;29.30;99.90;;;;;;5087936;28;20285;-63
2022/08/23 10:48:20;;;;;;;1.00;1.00;;;29.20;99.90;;;;;;5092089;28;20605;-63
2022/08/23 10:50:51;;;;;;;0.98;0.98;;;29.40;99.90;;;;;;5088189;28;20199;-62
2022/08/23 10:53:19;;;;;;;1.98;1.17;;;29.50;99.90;;;;;;5085793;28;20738;-61
2022/08/23 10:56:01;;;;;;;1.00;1.00;;;29.60;99.90;;;;;;5091507;28;20234;-61
2022/08/23 10:58:33;;;;;;;1.23;1.10;;;29.50;99.90;;;;;;5093107;28;20213;-62
2022/08/23 11:01:01;;;;;;;1.05;1.00;;;29.60;99.90;;;;;;5089621;28;20233;-61
2022/08/23 11:03:32;;;;;;;1.00;1.00;;;29.90;99.90;;;;;;5086537;28;20221;-63
2022/08/23 11:06:26;;;;;;;1.00;1.00;;;30.00;99.90;;;;;;5091723;28;20229;-63
2022/08/23 11:09:02;;;;;;;1.00;1.00;;;30.10;99.90;;;;;;5088647;28;20202;-62
2022/08/23 11:11:44;;;;;;;0.95;0.95;;;30.10;99.90;;;;;;5090455;28;20275;-61
2022/08/23 11:14:24;;;;;;;3.13;1.02;;;30.20;99.90;;;;;;5090809;28;20198;-62
2022/08/23 11:16:57;;;;;;;2.67;1.17;;;30.40;99.90;;;;;;5086165;28;20281;-62
2022/08/23 11:19:47;;;;;;;0.90;0.90;;;30.40;99.90;;;;;;5096778;28;20202;-63
2022/08/23 11:22:17;;;;;;;1.20;1.10;;;30.40;99.90;;;;;;5090223;28;20191;-61
2022/08/23 11:24:56;;;;;;;1.10;1.10;;;30.20;99.90;;;;;;5089308;28;20195;-62
2022/08/23 11:27:32;;;;;;;1.02;1.00;;;30.30;99.90;;;;;;5090927;28;20303;-63
2022/08/23 11:30:26;;;;;;;0.93;0.93;;;30.40;99.90;;;;;;5082020;28;20194;-63
2022/08/23 11:32:55;;;;;;;0.98;0.98;;;30.50;99.90;;;;;;5088686;28;20240;-63
2022/08/23 11:35:37;;;;;;;1.00;1.00;;;30.50;99.90;;;;;;5083024;28;20294;-62
2022/08/23 11:38:05;;;;;;;1.38;1.10;;;30.30;99.90;;;;;;5085022;28;20198;-62
2022/08/23 11:40:57;;;;;;;1.17;1.17;;;30.50;99.90;;;;;;5085256;28;20313;-61
2022/08/23 11:43:35;;;;;;;1.00;1.00;;;30.40;99.90;;;;;;5072322;28;20198;-62
2022/08/23 11:46:48;;;;;;;0.85;0.85;;;30.40;99.90;;;;;;5086388;28;20221;-61
2022/08/23 11:49:46;;;;;;;1.00;1.00;;;30.50;99.90;;;;;;5088144;28;20230;-62
2022/08/23 11:52:34;;;;;;;0.88;0.88;;;30.20;99.90;;;;;;5090083;28;20314;-61
2022/08/23 11:55:23;;;;;;;1.10;1.10;;;30.20;99.90;;;;;;5090417;28;20202;-61
2022/08/23 11:58:04;;;;;;;0.80;0.80;;;30.50;99.90;;;;;;5085774;28;20235;-61
2022/08/23 12:01:04;;;;;;;1.10;1.00;;;30.80;99.90;;;;;;5088864;28;20580;-61
2022/08/23 12:03:35;;;;;;;1.00;1.00;;;30.80;99.90;;;;;;5087970;28;20222;-62
2022/08/23 12:06:30;;;;;;;1.00;1.00;;;30.70;99.90;;;;;;5089227;28;20224;-61
2022/08/23 12:09:00;;;;;;;1.00;1.00;;;30.90;99.90;;;;;;5088436;28;20202;-62
2022/08/23 12:12:09;;;;;;;1.20;1.20;;;31.10;99.90;;;;;;5089265;28;20230;-61
2022/08/23 12:14:49;;;;;;;1.00;1.00;;;31.30;99.90;;;;;;5086526;28;20571;-63
2022/08/23 12:17:54;;;;;;;2.25;1.08;;;31.20;99.90;;;;;;5084643;28;20742;-63
2022/08/23 12:20:28;;;;;;;1.10;1.10;;;31.20;99.90;;;;;;5087743;28;20206;-63
2022/08/23 12:23:07;;;;;;;1.10;1.10;;;31.30;99.90;;;;;;5090215;28;20194;-62
2022/08/23 12:25:34;;;;;;;1.13;1.13;;;31.40;99.90;;;;;;5089320;28;20296;-61
2022/08/23 12:28:10;;;;;;;1.00;1.00;;;31.40;99.90;;;;;;5088216;28;20672;-64
2022/08/23 12:30:48;;;;;;;1.17;1.10;;;31.50;99.90;;;;;;5090779;28;20209;-63
2022/08/23 12:33:25;;;;;;;1.10;1.00;;;31.60;99.90;;;;;;5089699;28;20759;-64
2022/08/23 12:36:02;;;;;;;1.00;1.00;;;31.80;99.90;;;;;;5092466;28;20226;-61
2022/08/23 12:38:41;;;;;;;1.10;1.10;;;31.90;99.90;;;;;;5095270;28;20614;-63
2022/08/23 12:41:21;;;;;;;1.48;1.13;;;31.80;99.90;;;;;;5096508;28;20234;-62
2022/08/23 12:43:57;;;;;;;0.80;0.80;;;31.90;99.90;;;;;;5085785;28;20213;-61
2022/08/23 12:46:33;;;;;;;2.15;1.10;;;31.80;99.90;;;;;;5094598;28;20226;-62
2022/08/23 12:49:00;;;;;;;1.00;0.80;;;31.70;99.90;;;;;;5092677;28;20275;-62
2022/08/23 12:51:28;;;;;;;1.00;1.00;;;31.80;99.90;;;;;;5093795;28;20238;-62
2022/08/23 12:53:59;;;;;;;0.93;0.93;;;31.80;99.90;;;;;;5090980;28;20289;-62
2022/08/23 12:56:28;;;;;;;1.05;1.05;;;32.00;99.90;;;;;;5092132;28;20716;-63
2022/08/23 12:58:58;;;;;;;0.90;0.90;;;32.20;99.90;;;;;;5092475;28;20209;-62
2022/08/23 13:01:28;;;;;;;0.82;0.82;;;32.20;99.90;;;;;;5088522;28;20215;-62
2022/08/23 13:03:59;;;;;;;0.98;0.98;;;32.20;99.90;;;;;;5090426;28;20203;-63
2022/08/23 13:06:31;;;;;;;0.90;0.90;;;31.90;99.90;;;;;;5090572;28;20219;-62
2022/08/23 13:09:06;;;;;;;0.90;0.90;;;31.70;99.90;;;;;;5090184;28;20202;-64
2022/08/23 13:11:37;;;;;;;1.00;1.00;;;31.70;99.90;;;;;;5091437;28;20285;-63
2022/08/23 13:14:22;;;;;;;0.90;0.90;;;31.80;99.90;;;;;;5092439;28;20209;-63
2022/08/23 13:16:49;;;;;;;1.15;1.15;;;32.00;99.90;;;;;;5092260;28;20230;-62
2022/08/23 13:19:21;;;;;;;1.48;1.02;;;32.20;99.90;;;;;;5096698;28;20360;-63